Time;durP1;ratioP1;P1;durP2;ratioP2;P2;SDS_P1;SDS_P2;PMS_P1;PMS_P2;Temp;Humidity;BMP_temperature;BMP_pressure;BME280_temperature;BME280_humidity;BME280_pressure;Samples;Min_cycle;Max_cycle;Signal;HPM_P1;HPM_P2
2022/11/12 00:00:30;;;;;;;556.72;405.05;;;;;;;;;;4990826;28;20950;-78
2022/11/12 00:02:56;;;;;;;556.22;398.10;;;;;;;;;;4991346;28;20441;-77
2022/11/12 00:05:22;;;;;;;557.10;402.40;;;;;;;;;;4991642;28;21095;-77
2022/11/12 00:07:48;;;;;;;555.72;398.23;;;;;;;;;;4989597;28;20559;-77
2022/11/12 00:10:15;;;;;;;556.25;399.60;;;;;;;;;;4989708;28;20446;-80
2022/11/12 00:12:41;;;;;;;554.87;397.07;;;;;;;;;;4972505;28;20999;-79
2022/11/12 00:15:07;;;;;;;557.47;398.20;;;;;;;;;;4970141;28;21157;-79
2022/11/12 00:17:33;;;;;;;555.45;396.55;;;;;;;;;;4971419;28;20953;-79
2022/11/12 00:19:59;;;;;;;555.28;394.90;;;;;;;;;;4956065;28;20455;-79
2022/11/12 00:22:25;;;;;;;554.43;392.60;;;;;;;;;;4971886;28;20460;-79
2022/11/12 00:24:51;;;;;;;553.85;389.42;;;;;;;;;;4990106;28;20467;-79
2022/11/12 00:27:17;;;;;;;554.33;389.75;;;;;;;;;;4971382;28;21026;-79
2022/11/12 00:29:43;;;;;;;554.92;390.60;;;;;;;;;;4954467;28;20427;-79
2022/11/12 00:32:09;;;;;;;557.38;394.70;;;;;;;;;;4971982;28;22400;-80
2022/11/12 00:34:35;;;;;;;554.85;390.00;;;;;;;;;;4971881;28;20607;-79
2022/11/12 00:37:02;;;;;;;553.95;388.10;;;;;;;;;;4991269;28;20444;-80
2022/11/12 00:39:28;;;;;;;553.72;387.65;;;;;;;;;;4971809;28;20530;-80
2022/11/12 00:41:54;;;;;;;555.55;392.35;;;;;;;;;;4968637;28;20449;-79
2022/11/12 00:44:21;;;;;;;554.88;391.52;;;;;;;;;;4969996;28;20907;-80
2022/11/12 00:46:47;;;;;;;555.75;392.17;;;;;;;;;;4969085;28;20451;-79
2022/11/12 00:49:13;;;;;;;553.38;387.10;;;;;;;;;;4971416;28;20437;-80
2022/11/12 00:51:39;;;;;;;553.20;386.27;;;;;;;;;;4970112;28;20432;-80
2022/11/12 00:54:05;;;;;;;554.20;385.38;;;;;;;;;;4971043;28;20791;-79
2022/11/12 00:56:31;;;;;;;551.88;384.23;;;;;;;;;;4971584;28;20433;-80
2022/11/12 00:58:57;;;;;;;553.03;384.15;;;;;;;;;;4971199;28;20504;-79
2022/11/12 01:01:24;;;;;;;553.63;386.95;;;;;;;;;;4970383;28;20479;-79
2022/11/12 01:03:50;;;;;;;552.03;382.15;;;;;;;;;;4970296;28;20490;-79
2022/11/12 01:06:17;;;;;;;552.78;382.25;;;;;;;;;;4970550;28;20787;-80
2022/11/12 01:08:44;;;;;;;551.25;382.13;;;;;;;;;;4972031;28;20432;-79
2022/11/12 01:11:11;;;;;;;553.40;385.85;;;;;;;;;;4972723;28;20451;-80
2022/11/12 01:13:38;;;;;;;552.45;386.73;;;;;;;;;;4970895;28;20806;-79
2022/11/12 01:16:05;;;;;;;552.78;380.70;;;;;;;;;;4972505;28;20898;-80
2022/11/12 01:18:31;;;;;;;552.75;382.52;;;;;;;;;;4991525;28;20432;-80
2022/11/12 01:21:01;;;;;;;552.95;383.75;;;;;;;;;;4971372;28;20989;-79
2022/11/12 01:23:27;;;;;;;551.33;380.40;;;;;;;;;;4971506;28;20440;-80
2022/11/12 01:25:53;;;;;;;552.40;378.98;;;;;;;;;;4971112;28;20461;-79
2022/11/12 01:28:19;;;;;;;552.83;381.52;;;;;;;;;;4968917;28;20528;-79
2022/11/12 01:30:45;;;;;;;552.40;377.65;;;;;;;;;;4969696;28;20647;-80
2022/11/12 01:33:11;;;;;;;553.63;380.25;;;;;;;;;;4971537;28;20432;-80
2022/11/12 01:35:37;;;;;;;551.28;375.88;;;;;;;;;;4970523;28;21230;-80
2022/11/12 01:38:03;;;;;;;552.63;379.33;;;;;;;;;;4970883;28;20428;-79
2022/11/12 01:40:31;;;;;;;550.90;377.40;;;;;;;;;;4971141;28;20803;-80
2022/11/12 01:42:57;;;;;;;552.42;379.00;;;;;;;;;;4970038;28;20443;-79
2022/11/12 01:45:23;;;;;;;552.45;380.33;;;;;;;;;;4969437;28;21060;-79
2022/11/12 01:47:51;;;;;;;551.15;380.48;;;;;;;;;;4970705;28;20428;-80
2022/11/12 01:50:17;;;;;;;552.28;381.15;;;;;;;;;;4968540;28;20962;-80
2022/11/12 01:52:45;;;;;;;551.53;378.88;;;;;;;;;;4971304;28;20468;-80
2022/11/12 01:55:18;;;;;;;554.65;379.70;;;;;;;;;;4955869;28;21187;-80
2022/11/12 01:58:04;;;;;;;551.25;376.35;;;;;;;;;;4970118;28;20451;-80
2022/11/12 02:00:31;;;;;;;554.15;380.75;;;;;;;;;;4967917;28;21142;-80
2022/11/12 02:03:00;;;;;;;552.25;376.95;;;;;;;;;;4971329;28;21187;-79
2022/11/12 02:05:27;;;;;;;552.33;379.63;;;;;;;;;;4969840;28;22333;-80
2022/11/12 02:07:55;;;;;;;552.80;380.63;;;;;;;;;;4971536;28;20443;-79
2022/11/12 02:10:21;;;;;;;550.85;378.88;;;;;;;;;;4972859;28;20592;-79
2022/11/12 02:15:33;;;;;;;551.17;377.50;;;;;;;;;;4969840;28;21359;-80
2022/11/12 02:18:00;;;;;;;550.13;372.88;;;;;;;;;;4967621;28;20534;-80
2022/11/12 02:20:26;;;;;;;549.33;371.52;;;;;;;;;;4966918;28;20927;-79
2022/11/12 02:22:52;;;;;;;549.53;373.55;;;;;;;;;;4951515;28;20441;-80
2022/11/12 02:25:23;;;;;;;550.97;374.88;;;;;;;;;;4967990;28;20445;-79
2022/11/12 02:27:50;;;;;;;551.53;376.67;;;;;;;;;;4967923;28;20430;-80
2022/11/12 02:30:17;;;;;;;553.72;378.95;;;;;;;;;;4987808;28;21026;-79
2022/11/12 02:32:43;;;;;;;550.50;375.47;;;;;;;;;;4969066;28;20426;-79
2022/11/12 02:35:09;;;;;;;552.40;375.73;;;;;;;;;;4965317;28;20880;-80
2022/11/12 02:37:35;;;;;;;551.13;373.58;;;;;;;;;;4968009;28;20839;-81
2022/11/12 02:40:01;;;;;;;551.30;372.43;;;;;;;;;;4968019;28;22370;-80
2022/11/12 02:42:27;;;;;;;550.25;370.60;;;;;;;;;;4963399;28;20577;-81
2022/11/12 02:44:53;;;;;;;550.20;365.38;;;;;;;;;;4966600;28;20805;-80
2022/11/12 02:47:19;;;;;;;551.97;370.80;;;;;;;;;;4966082;28;21939;-80
2022/11/12 02:49:45;;;;;;;552.58;371.25;;;;;;;;;;4964790;28;20854;-79
2022/11/12 02:52:11;;;;;;;550.53;369.33;;;;;;;;;;4964055;28;21009;-80
2022/11/12 02:54:37;;;;;;;550.47;366.20;;;;;;;;;;4983546;28;20463;-80
2022/11/12 02:57:03;;;;;;;549.17;366.13;;;;;;;;;;4985388;28;20418;-79
2022/11/12 02:59:29;;;;;;;551.05;371.13;;;;;;;;;;4965315;28;20427;-80
2022/11/12 03:01:55;;;;;;;549.87;367.43;;;;;;;;;;4965713;28;20447;-80
2022/11/12 03:04:21;;;;;;;550.35;367.60;;;;;;;;;;4967851;28;20427;-80
2022/11/12 03:06:47;;;;;;;550.10;364.63;;;;;;;;;;4969543;28;20426;-80
2022/11/12 03:09:13;;;;;;;547.83;360.87;;;;;;;;;;4971263;28;20477;-80
2022/11/12 03:11:39;;;;;;;547.72;362.17;;;;;;;;;;4969701;28;20478;-80
2022/11/12 03:14:05;;;;;;;548.55;361.95;;;;;;;;;;4967651;28;20418;-79
2022/11/12 03:16:31;;;;;;;548.45;359.58;;;;;;;;;;4967680;28;20912;-78
2022/11/12 03:18:57;;;;;;;548.05;358.25;;;;;;;;;;4989608;28;20915;-79
2022/11/12 03:21:23;;;;;;;547.05;354.90;;;;;;;;;;4985364;28;20535;-79
2022/11/12 03:23:49;;;;;;;549.78;360.90;;;;;;;;;;4988794;28;20790;-79
2022/11/12 03:26:15;;;;;;;547.92;358.23;;;;;;;;;;4987854;28;20475;-79
2022/11/12 03:28:42;;;;;;;545.90;355.40;;;;;;;;;;4989469;28;20424;-78
2022/11/12 03:31:10;;;;;;;549.33;359.48;;;;;;;;;;4968779;28;20436;-79
2022/11/12 03:33:37;;;;;;;548.70;356.58;;;;;;;;;;4988912;28;20472;-79
2022/11/12 03:36:04;;;;;;;545.88;352.15;;;;;;;;;;4953598;28;20436;-79
2022/11/12 03:38:30;;;;;;;547.28;355.65;;;;;;;;;;4988935;28;20425;-78
2022/11/12 03:40:56;;;;;;;547.40;354.73;;;;;;;;;;4970341;28;20432;-80
2022/11/12 03:43:22;;;;;;;548.67;357.55;;;;;;;;;;4967568;28;20440;-79
2022/11/12 03:45:48;;;;;;;546.42;351.38;;;;;;;;;;4968744;28;21125;-79
2022/11/12 03:48:14;;;;;;;547.45;352.67;;;;;;;;;;4968733;28;20425;-79
2022/11/12 03:50:40;;;;;;;551.05;360.20;;;;;;;;;;4986774;28;20803;-79
2022/11/12 03:53:06;;;;;;;548.42;357.73;;;;;;;;;;4966515;28;20424;-79
2022/11/12 03:55:32;;;;;;;547.67;355.30;;;;;;;;;;4970014;28;20471;-79
2022/11/12 03:57:58;;;;;;;547.38;353.90;;;;;;;;;;4952746;28;20515;-79
2022/11/12 04:00:26;;;;;;;549.63;358.38;;;;;;;;;;4969144;28;20429;-79
2022/11/12 04:02:52;;;;;;;549.92;358.40;;;;;;;;;;4972160;28;20433;-79
2022/11/12 04:10:52;;;;;;;548.38;353.95;;;;;;;;;;4968643;28;21838;-79
2022/11/12 04:13:27;;;;;;;546.78;350.60;;;;;;;;;;4969154;28;20443;-80
2022/11/12 04:26:21;;;;;;;545.05;347.00;;;;;;;;;;4987014;28;20441;-79
2022/11/12 04:26:56;;;;;;;546.15;346.75;;;;;;;;;;4968382;28;20502;-79
2022/11/12 04:32:07;;;;;;;547.60;349.63;;;;;;;;;;4966413;28;20440;-79
2022/11/12 04:34:33;;;;;;;547.72;348.67;;;;;;;;;;4967822;28;20791;-81
2022/11/12 04:37:00;;;;;;;545.05;342.65;;;;;;;;;;4970255;28;20946;-80
2022/11/12 04:39:26;;;;;;;545.75;346.08;;;;;;;;;;4971815;28;20522;-80
2022/11/12 04:47:21;;;;;;;545.70;342.83;;;;;;;;;;4970321;28;20991;-80
2022/11/12 04:49:47;;;;;;;545.50;342.40;;;;;;;;;;4971513;28;20471;-80
2022/11/12 04:52:14;;;;;;;545.53;341.57;;;;;;;;;;4971208;28;20532;-80
2022/11/12 04:54:40;;;;;;;547.15;343.13;;;;;;;;;;4970998;28;20448;-80
2022/11/12 04:57:06;;;;;;;544.85;340.88;;;;;;;;;;4971036;28;20507;-80
2022/11/12 04:59:32;;;;;;;544.20;341.23;;;;;;;;;;4990553;28;20444;-80
2022/11/12 05:01:58;;;;;;;545.25;343.10;;;;;;;;;;4987294;28;21014;-80
2022/11/12 05:04:28;;;;;;;545.03;343.38;;;;;;;;;;4972493;28;20497;-80
2022/11/12 05:06:56;;;;;;;548.20;346.13;;;;;;;;;;4989048;28;20946;-80
2022/11/12 05:09:24;;;;;;;548.42;348.50;;;;;;;;;;4969460;28;20539;-80
2022/11/12 05:11:50;;;;;;;548.30;350.98;;;;;;;;;;4971133;28;20790;-79
2022/11/12 05:14:17;;;;;;;544.67;343.30;;;;;;;;;;4969944;28;20923;-79
2022/11/12 05:16:43;;;;;;;548.92;354.02;;;;;;;;;;4971789;28;20436;-79
2022/11/12 05:19:09;;;;;;;549.53;355.10;;;;;;;;;;4970003;28;20441;-79
2022/11/12 05:24:20;;;;;;;547.72;353.77;;;;;;;;;;4970518;28;20886;-80
2022/11/12 05:26:46;;;;;;;548.00;355.23;;;;;;;;;;4970488;28;20478;-79
2022/11/12 05:29:12;;;;;;;548.88;357.90;;;;;;;;;;4968349;28;21353;-80
2022/11/12 05:31:38;;;;;;;549.08;361.35;;;;;;;;;;4970362;28;20437;-79
2022/11/12 05:34:04;;;;;;;550.10;363.77;;;;;;;;;;4970329;28;21437;-78
2022/11/12 05:36:30;;;;;;;549.63;364.35;;;;;;;;;;4969742;28;20428;-79
2022/11/12 05:38:56;;;;;;;550.45;366.05;;;;;;;;;;4973672;28;21910;-81
2022/11/12 05:41:22;;;;;;;551.83;369.63;;;;;;;;;;4971382;28;20444;-80
2022/11/12 05:43:48;;;;;;;549.90;364.95;;;;;;;;;;4954016;28;20930;-79
2022/11/12 05:46:14;;;;;;;548.40;363.52;;;;;;;;;;4974173;28;20499;-80
2022/11/12 05:48:40;;;;;;;551.80;366.73;;;;;;;;;;4969370;28;20520;-79
2022/11/12 05:51:06;;;;;;;549.92;366.42;;;;;;;;;;4970286;28;20432;-80
2022/11/12 05:53:32;;;;;;;550.58;368.67;;;;;;;;;;4968418;28;22034;-80
2022/11/12 05:56:02;;;;;;;550.80;364.73;;;;;;;;;;4956774;28;21107;-79
2022/11/12 05:58:28;;;;;;;551.55;368.02;;;;;;;;;;4969949;28;20436;-80
2022/11/12 06:00:54;;;;;;;549.40;362.52;;;;;;;;;;4955798;28;20490;-81
2022/11/12 06:03:20;;;;;;;549.83;363.30;;;;;;;;;;4969223;28;20492;-79
2022/11/12 06:05:46;;;;;;;548.17;362.05;;;;;;;;;;4972267;28;20428;-80
2022/11/12 06:08:12;;;;;;;548.58;361.85;;;;;;;;;;4969333;28;21060;-80
2022/11/12 06:10:38;;;;;;;548.33;363.67;;;;;;;;;;4971116;28;20425;-80
2022/11/12 06:13:04;;;;;;;547.38;359.73;;;;;;;;;;4952126;28;20444;-80
2022/11/12 06:15:30;;;;;;;550.35;366.42;;;;;;;;;;4970124;28;20484;-80
2022/11/12 06:17:56;;;;;;;548.70;362.00;;;;;;;;;;4987310;28;20535;-79
2022/11/12 06:20:23;;;;;;;549.10;362.35;;;;;;;;;;4956798;28;20436;-80
2022/11/12 06:22:49;;;;;;;552.00;366.23;;;;;;;;;;4967014;28;20432;-80
2022/11/12 06:25:15;;;;;;;548.97;363.98;;;;;;;;;;4970371;28;20677;-80
2022/11/12 06:27:42;;;;;;;549.38;364.42;;;;;;;;;;4986754;28;20425;-80
2022/11/12 06:30:08;;;;;;;548.85;365.00;;;;;;;;;;4967021;28;20730;-80
2022/11/12 06:32:34;;;;;;;552.05;369.55;;;;;;;;;;4971874;28;20433;-80
2022/11/12 06:35:00;;;;;;;552.13;370.92;;;;;;;;;;4969265;28;20526;-80
2022/11/12 06:37:26;;;;;;;551.10;370.80;;;;;;;;;;4970918;28;20990;-81
2022/11/12 06:39:52;;;;;;;550.05;369.25;;;;;;;;;;4969749;28;20483;-81
2022/11/12 06:42:18;;;;;;;551.22;371.40;;;;;;;;;;4969770;28;21359;-81
2022/11/12 06:44:45;;;;;;;551.58;373.63;;;;;;;;;;4951465;28;20479;-81
2022/11/12 06:47:11;;;;;;;552.50;377.27;;;;;;;;;;4968578;28;20831;-80
2022/11/12 06:49:37;;;;;;;552.03;376.67;;;;;;;;;;4968498;28;20424;-80
2022/11/12 06:52:03;;;;;;;552.47;378.30;;;;;;;;;;4953567;28;20977;-80
2022/11/12 06:54:29;;;;;;;552.05;375.40;;;;;;;;;;4968805;28;21170;-80
2022/11/12 06:56:55;;;;;;;554.35;382.95;;;;;;;;;;4970298;28;20435;-80
2022/11/12 06:59:21;;;;;;;553.33;380.42;;;;;;;;;;4969564;28;20444;-80
2022/11/12 07:01:47;;;;;;;554.78;383.10;;;;;;;;;;4969204;28;20451;-79
2022/11/12 07:04:13;;;;;;;553.03;381.13;;;;;;;;;;4970208;28;20421;-80
2022/11/12 07:06:39;;;;;;;553.63;380.45;;;;;;;;;;4972607;28;20428;-80
2022/11/12 07:09:05;;;;;;;555.08;384.85;;;;;;;;;;4968683;28;21021;-80
2022/11/12 07:11:31;;;;;;;552.15;378.30;;;;;;;;;;4971780;28;20451;-80
2022/11/12 07:13:57;;;;;;;554.30;382.38;;;;;;;;;;4969783;28;20432;-80
2022/11/12 07:16:23;;;;;;;554.00;380.10;;;;;;;;;;4968578;28;20479;-80
2022/11/12 07:18:50;;;;;;;552.65;376.55;;;;;;;;;;4967006;28;20527;-81
2022/11/12 07:21:17;;;;;;;552.03;376.27;;;;;;;;;;4970409;28;20432;-80
2022/11/12 07:23:43;;;;;;;553.78;379.98;;;;;;;;;;4969512;28;20433;-81
2022/11/12 07:26:14;;;;;;;551.83;373.58;;;;;;;;;;4969788;28;21941;-80
2022/11/12 07:28:40;;;;;;;551.65;371.63;;;;;;;;;;4988171;28;20926;-79
2022/11/12 07:31:07;;;;;;;552.38;375.02;;;;;;;;;;4964491;28;21836;-79
2022/11/12 07:33:33;;;;;;;557.90;385.65;;;;;;;;;;4964240;28;21588;-79
2022/11/12 07:36:04;;;;;;;552.78;376.33;;;;;;;;;;4970437;28;20539;-82
2022/11/12 07:38:30;;;;;;;550.60;373.35;;;;;;;;;;4967906;28;21057;-82
2022/11/12 07:41:00;;;;;;;550.38;371.42;;;;;;;;;;4989807;28;20525;-84
2022/11/12 07:43:26;;;;;;;552.97;379.15;;;;;;;;;;4968082;28;20449;-82
2022/11/12 07:45:52;;;;;;;552.72;377.33;;;;;;;;;;4967793;28;20436;-82
2022/11/12 07:48:18;;;;;;;550.15;375.95;;;;;;;;;;4968763;28;21035;-83
2022/11/12 07:50:44;;;;;;;551.78;376.85;;;;;;;;;;4972638;28;20436;-83
2022/11/12 07:53:10;;;;;;;553.38;381.67;;;;;;;;;;4971563;28;21138;-85
2022/11/12 07:55:36;;;;;;;553.63;384.33;;;;;;;;;;4969340;28;20536;-83
2022/11/12 07:58:02;;;;;;;553.00;381.08;;;;;;;;;;4969289;28;20499;-84
2022/11/12 08:00:28;;;;;;;553.88;385.00;;;;;;;;;;4968019;28;20435;-82
2022/11/12 08:02:54;;;;;;;553.13;381.67;;;;;;;;;;4970191;28;20428;-81
2022/11/12 08:05:20;;;;;;;555.05;386.80;;;;;;;;;;4967924;28;21035;-83
2022/11/12 08:07:46;;;;;;;554.25;386.92;;;;;;;;;;4967888;28;20635;-83
2022/11/12 08:10:12;;;;;;;555.15;387.88;;;;;;;;;;4968198;28;20540;-83
2022/11/12 08:12:38;;;;;;;555.72;389.65;;;;;;;;;;4973761;28;20444;-83
2022/11/12 08:24:33;;;;;;;553.53;385.83;;;;;;;;;;5002717;28;20450;-83
2022/11/12 08:26:59;;;;;;;554.80;389.40;;;;;;;;;;4991529;28;20534;-82
2022/11/12 08:29:25;;;;;;;553.60;390.05;;;;;;;;;;4993279;28;20522;-85
2022/11/12 08:31:51;;;;;;;554.03;388.42;;;;;;;;;;4976393;28;20435;-83
2022/11/12 08:34:17;;;;;;;554.97;393.90;;;;;;;;;;4994752;28;20528;-83
2022/11/12 08:36:43;;;;;;;555.97;396.38;;;;;;;;;;4990633;28;20477;-82
2022/11/12 08:39:09;;;;;;;558.30;400.08;;;;;;;;;;4990252;28;20459;-80
2022/11/12 08:41:35;;;;;;;554.85;399.23;;;;;;;;;;4990051;28;20439;-79
2022/11/12 08:44:01;;;;;;;556.83;401.93;;;;;;;;;;4993375;28;20880;-80
2022/11/12 08:46:27;;;;;;;559.03;408.88;;;;;;;;;;4978382;28;21007;-80
2022/11/12 08:48:53;;;;;;;559.55;411.25;;;;;;;;;;4989312;28;20778;-80
2022/11/12 08:51:19;;;;;;;557.38;408.23;;;;;;;;;;4992597;28;20471;-81
2022/11/12 08:53:46;;;;;;;557.95;408.90;;;;;;;;;;4992721;28;20427;-81
2022/11/12 08:56:12;;;;;;;559.97;417.77;;;;;;;;;;4993098;28;20442;-80
2022/11/12 08:58:38;;;;;;;559.58;417.83;;;;;;;;;;4991163;28;21347;-80
2022/11/12 09:01:05;;;;;;;560.78;419.90;;;;;;;;;;4990096;28;21316;-80
2022/11/12 09:03:31;;;;;;;560.40;418.83;;;;;;;;;;5011358;28;20544;-80
2022/11/12 09:05:57;;;;;;;558.70;418.73;;;;;;;;;;4992536;28;20573;-79
2022/11/12 09:08:24;;;;;;;562.08;425.98;;;;;;;;;;4990399;28;20865;-80
2022/11/12 09:10:51;;;;;;;561.30;428.02;;;;;;;;;;5008814;28;20419;-80
2022/11/12 09:13:17;;;;;;;561.45;426.35;;;;;;;;;;4991890;28;20445;-81
2022/11/12 09:15:43;;;;;;;561.42;427.25;;;;;;;;;;4993607;28;20433;-80
2022/11/12 09:18:11;;;;;;;563.20;427.77;;;;;;;;;;4992749;28;20419;-82
2022/11/12 09:20:37;;;;;;;561.90;429.13;;;;;;;;;;4991934;28;20438;-80
2022/11/12 09:23:05;;;;;;;561.35;428.63;;;;;;;;;;5008867;28;20540;-80
2022/11/12 09:25:31;;;;;;;561.88;429.77;;;;;;;;;;4992907;28;20936;-80
2022/11/12 09:27:57;;;;;;;562.53;431.05;;;;;;;;;;4992414;28;20431;-81
2022/11/12 09:30:23;;;;;;;562.38;429.90;;;;;;;;;;4989346;28;20443;-82
2022/11/12 09:32:49;;;;;;;560.55;425.50;;;;;;;;;;4988570;28;20792;-82
2022/11/12 09:35:15;;;;;;;561.45;430.13;;;;;;;;;;5012661;28;20441;-81
2022/11/12 09:37:41;;;;;;;562.90;429.80;;;;;;;;;;4990404;28;20431;-81
2022/11/12 09:40:11;;;;;;;562.10;428.27;;;;;;;;;;4989503;28;20439;-80
2022/11/12 09:42:37;;;;;;;561.95;428.75;;;;;;;;;;4989843;28;20830;-75
2022/11/12 09:45:22;;;;;;;560.63;426.47;;;;;;;;;;5010509;28;20548;-79
2022/11/12 09:47:51;;;;;;;561.72;430.58;;;;;;;;;;4991640;28;20937;-84
2022/11/12 09:50:20;;;;;;;560.17;427.65;;;;;;;;;;4987125;28;20438;-80
2022/11/12 09:52:48;;;;;;;560.53;428.55;;;;;;;;;;4991210;28;20522;-80
2022/11/12 09:55:14;;;;;;;559.78;424.10;;;;;;;;;;4991420;28;20567;-79
2022/11/12 09:57:40;;;;;;;559.10;420.70;;;;;;;;;;4989591;28;21068;-81
2022/11/12 10:00:14;;;;;;;560.10;423.58;;;;;;;;;;5008016;28;20447;-80
2022/11/12 10:02:51;;;;;;;559.45;423.60;;;;;;;;;;4989876;28;20439;-81
2022/11/12 10:05:25;;;;;;;559.63;422.58;;;;;;;;;;4990661;28;20426;-80
2022/11/12 10:08:19;;;;;;;558.97;423.70;;;;;;;;;;4991317;28;20485;-82
2022/11/12 10:10:47;;;;;;;560.87;425.73;;;;;;;;;;4991510;28;20542;-81
2022/11/12 10:13:32;;;;;;;560.08;426.45;;;;;;;;;;4989736;28;20781;-81
2022/11/12 10:19:19;;;;;;;560.17;427.30;;;;;;;;;;4989613;28;20533;-80
2022/11/12 10:22:01;;;;;;;559.47;428.08;;;;;;;;;;5006560;28;21879;-84
2022/11/12 10:24:29;;;;;;;559.88;430.13;;;;;;;;;;4988763;28;20450;-81
2022/11/12 10:26:56;;;;;;;560.78;427.40;;;;;;;;;;4993770;28;20432;-82
2022/11/12 10:29:31;;;;;;;561.80;431.90;;;;;;;;;;4988566;28;20435;-81
2022/11/12 10:32:01;;;;;;;560.75;434.23;;;;;;;;;;4990996;28;20652;-82
2022/11/12 10:34:29;;;;;;;561.55;431.80;;;;;;;;;;4990388;28;20442;-81
2022/11/12 10:37:22;;;;;;;560.93;429.73;;;;;;;;;;4992411;28;20467;-82
2022/11/12 10:39:48;;;;;;;562.25;435.08;;;;;;;;;;4988062;28;20746;-82
2022/11/12 10:42:15;;;;;;;561.05;432.35;;;;;;;;;;4988776;28;20940;-82
2022/11/12 10:44:42;;;;;;;564.38;439.75;;;;;;;;;;4990508;28;20431;-80
2022/11/12 10:47:28;;;;;;;564.57;442.10;;;;;;;;;;4984696;28;21054;-84
2022/11/12 10:50:13;;;;;;;563.15;439.33;;;;;;;;;;4990718;28;21003;-81
2022/11/12 10:52:39;;;;;;;560.88;436.55;;;;;;;;;;4987474;28;20435;-83
2022/11/12 10:55:14;;;;;;;563.25;440.10;;;;;;;;;;4973357;28;20443;-80
2022/11/12 10:57:41;;;;;;;564.50;441.38;;;;;;;;;;4980259;28;20447;-81
2022/11/12 11:00:13;;;;;;;566.58;450.50;;;;;;;;;;4991747;28;20888;-82
2022/11/12 11:02:46;;;;;;;565.33;451.65;;;;;;;;;;4990550;28;20794;-80
2022/11/12 11:05:31;;;;;;;567.65;456.85;;;;;;;;;;5007157;28;20467;-83
2022/11/12 11:07:57;;;;;;;566.53;452.73;;;;;;;;;;5007319;28;20759;-85
2022/11/12 11:10:23;;;;;;;568.47;458.15;;;;;;;;;;4988048;28;20536;-82
2022/11/12 11:12:51;;;;;;;567.35;459.15;;;;;;;;;;4988299;28;20742;-80
2022/11/12 11:15:21;;;;;;;569.88;465.80;;;;;;;;;;4990651;28;21272;-78
2022/11/12 11:17:48;;;;;;;568.40;461.30;;;;;;;;;;4988349;28;22048;-78
2022/11/12 11:20:25;;;;;;;570.58;467.17;;;;;;;;;;4985604;28;20461;-79
2022/11/12 11:23:02;;;;;;;570.50;469.60;;;;;;;;;;4986926;28;20471;-73
2022/11/12 11:25:29;;;;;;;570.40;469.05;;;;;;;;;;5004086;28;20504;-75
2022/11/12 11:27:55;;;;;;;570.38;472.60;;;;;;;;;;4988746;28;20438;-74
2022/11/12 11:30:21;;;;;;;569.15;470.17;;;;;;;;;;4989331;28;20450;-74
2022/11/12 11:33:03;;;;;;;570.22;475.20;;;;;;;;;;5005988;28;20505;-74
2022/11/12 11:35:45;;;;;;;570.10;477.83;;;;;;;;;;4988262;28;20431;-74
2022/11/12 11:38:22;;;;;;;570.38;479.23;;;;;;;;;;5007489;28;20427;-76
2022/11/12 11:41:00;;;;;;;581.75;482.65;;;;;;;;;;4988202;28;20940;-75
2022/11/12 11:43:37;;;;;;;570.13;476.85;;;;;;;;;;5006521;28;20944;-75
2022/11/12 11:46:13;;;;;;;570.28;475.33;;;;;;;;;;4987458;28;20439;-74
2022/11/12 11:48:57;;;;;;;570.95;477.85;;;;;;;;;;4990489;28;20521;-75
2022/11/12 11:51:23;;;;;;;572.42;480.15;;;;;;;;;;4991539;28;20446;-73
2022/11/12 11:53:49;;;;;;;571.08;478.85;;;;;;;;;;4991223;28;20434;-73
2022/11/12 11:56:23;;;;;;;571.10;479.35;;;;;;;;;;4989728;28;20881;-75
2022/11/12 11:58:56;;;;;;;570.70;478.87;;;;;;;;;;4989889;28;20575;-75
2022/11/12 12:01:34;;;;;;;572.10;478.73;;;;;;;;;;4992496;28;20793;-75
2022/11/12 12:04:16;;;;;;;573.15;481.75;;;;;;;;;;4988668;28;20462;-75
2022/11/12 12:06:56;;;;;;;569.22;473.25;;;;;;;;;;5008623;28;20589;-75
2022/11/12 12:09:28;;;;;;;569.70;473.25;;;;;;;;;;4992076;28;21123;-76
2022/11/12 12:11:54;;;;;;;569.28;473.38;;;;;;;;;;4992696;28;20470;-78
2022/11/12 12:14:20;;;;;;;572.40;485.03;;;;;;;;;;4989416;28;20537;-76
2022/11/12 12:16:52;;;;;;;572.50;484.92;;;;;;;;;;5005793;28;20867;-77
2022/11/12 12:19:27;;;;;;;571.33;480.13;;;;;;;;;;4989489;28;20996;-77
2022/11/12 12:21:56;;;;;;;572.38;483.95;;;;;;;;;;5008754;28;20488;-77
2022/11/12 12:24:29;;;;;;;572.13;485.40;;;;;;;;;;5009788;28;20431;-77
2022/11/12 12:27:09;;;;;;;573.57;489.10;;;;;;;;;;5007706;28;21146;-77
2022/11/12 12:29:38;;;;;;;571.92;488.30;;;;;;;;;;4993026;28;20465;-78
2022/11/12 12:32:10;;;;;;;572.63;491.83;;;;;;;;;;5011876;28;20496;-77
2022/11/12 12:34:41;;;;;;;573.92;491.33;;;;;;;;;;4992158;28;20872;-77
2022/11/12 12:37:20;;;;;;;573.08;490.92;;;;;;;;;;4991766;28;20925;-77
2022/11/12 12:39:51;;;;;;;575.65;497.33;;;;;;;;;;5010232;28;20512;-78
2022/11/12 12:42:28;;;;;;;575.92;503.15;;;;;;;;;;4991738;28;20458;-82
2022/11/12 12:45:03;;;;;;;576.83;504.80;;;;;;;;;;5009788;28;20435;-77
2022/11/12 12:47:33;;;;;;;579.20;506.55;;;;;;;;;;5006524;28;20445;-77
2022/11/12 12:50:00;;;;;;;578.47;507.52;;;;;;;;;;5011714;28;20427;-78
2022/11/12 12:52:26;;;;;;;575.25;502.77;;;;;;;;;;4992334;28;20439;-78
2022/11/12 12:54:52;;;;;;;576.70;507.88;;;;;;;;;;4991901;28;20446;-78
2022/11/12 12:57:38;;;;;;;575.95;502.55;;;;;;;;;;4990913;28;20500;-78
2022/11/12 13:00:22;;;;;;;576.70;506.20;;;;;;;;;;5012372;28;20420;-78
2022/11/12 13:02:48;;;;;;;576.85;504.35;;;;;;;;;;4990445;28;22270;-76
2022/11/12 13:05:24;;;;;;;576.55;502.60;;;;;;;;;;4992681;28;20477;-78
2022/11/12 13:07:50;;;;;;;576.65;505.92;;;;;;;;;;4977256;28;21001;-78
2022/11/12 13:10:35;;;;;;;577.40;508.45;;;;;;;;;;5006619;28;20561;-78
2022/11/12 13:13:01;;;;;;;576.90;508.40;;;;;;;;;;5007894;28;20438;-77
2022/11/12 13:15:44;;;;;;;575.88;510.15;;;;;;;;;;5011573;28;20435;-78
2022/11/12 13:18:10;;;;;;;580.72;515.97;;;;;;;;;;5006000;28;22462;-77
2022/11/12 13:20:40;;;;;;;578.42;511.83;;;;;;;;;;5009928;28;20430;-77
2022/11/12 13:23:11;;;;;;;577.47;512.97;;;;;;;;;;5010079;28;20557;-77
2022/11/12 13:25:38;;;;;;;587.27;522.77;;;;;;;;;;5009128;28;20438;-76
2022/11/12 13:28:08;;;;;;;586.03;521.67;;;;;;;;;;5011139;28;20411;-76
2022/11/12 13:30:34;;;;;;;577.72;512.75;;;;;;;;;;5011637;28;20433;-75
2022/11/12 13:33:02;;;;;;;582.80;518.30;;;;;;;;;;4988881;28;20431;-77
2022/11/12 13:35:33;;;;;;;582.13;517.85;;;;;;;;;;4991461;28;20435;-76
2022/11/12 13:38:02;;;;;;;578.13;514.03;;;;;;;;;;4996344;28;20501;-76
2022/11/12 13:40:37;;;;;;;576.83;510.50;;;;;;;;;;5010780;28;20431;-76
2022/11/12 13:43:13;;;;;;;577.63;509.02;;;;;;;;;;5009774;28;20427;-76
2022/11/12 13:45:57;;;;;;;576.80;510.45;;;;;;;;;;4992758;28;20442;-76
2022/11/12 13:48:26;;;;;;;577.75;508.27;;;;;;;;;;4988449;28;20549;-77
2022/11/12 13:50:54;;;;;;;575.55;506.50;;;;;;;;;;5010984;28;20446;-77
2022/11/12 13:53:25;;;;;;;577.20;506.52;;;;;;;;;;4991377;28;21123;-77
2022/11/12 13:55:53;;;;;;;575.95;508.60;;;;;;;;;;4991421;28;20434;-77
2022/11/12 13:58:30;;;;;;;578.50;510.97;;;;;;;;;;4990045;28;20466;-76
2022/11/12 14:00:57;;;;;;;576.97;506.63;;;;;;;;;;4992664;28;21090;-78
2022/11/12 14:03:25;;;;;;;577.15;510.35;;;;;;;;;;4991964;28;20477;-79
2022/11/12 14:05:51;;;;;;;577.97;509.55;;;;;;;;;;4991516;28;20427;-78
2022/11/12 14:08:17;;;;;;;577.60;513.28;;;;;;;;;;4989457;28;20433;-77
2022/11/12 14:10:49;;;;;;;578.45;513.72;;;;;;;;;;4990379;28;20435;-78
2022/11/12 14:13:21;;;;;;;576.63;509.30;;;;;;;;;;5009811;28;20517;-78
2022/11/12 14:16:08;;;;;;;576.30;508.65;;;;;;;;;;5009749;28;20642;-79
2022/11/12 14:18:37;;;;;;;582.72;518.28;;;;;;;;;;4989019;28;20426;-78
2022/11/12 14:21:05;;;;;;;579.15;514.95;;;;;;;;;;4988452;28;21105;-77
2022/11/12 14:23:31;;;;;;;582.38;518.08;;;;;;;;;;4990114;28;20783;-75
2022/11/12 14:25:57;;;;;;;576.20;509.50;;;;;;;;;;4991775;28;21244;-77
2022/11/12 14:28:23;;;;;;;581.80;517.53;;;;;;;;;;5008500;28;20430;-77
2022/11/12 14:30:49;;;;;;;575.92;508.70;;;;;;;;;;4989540;28;20439;-79
2022/11/12 14:33:20;;;;;;;576.22;509.70;;;;;;;;;;4991378;28;20533;-79
2022/11/12 14:35:46;;;;;;;577.30;510.30;;;;;;;;;;4988973;28;21303;-79
2022/11/12 14:38:15;;;;;;;581.30;515.03;;;;;;;;;;4987115;28;20523;-77